Toledo Metcalf, OH

11:26 PM EST on November 17, 2017 (GMT -0500)
Metcalf | | Change Station
Active Advisory: Wind Advisory

Elev 620 ft 41.56 °N, 83.48 °W | Updated 33 minutes ago

Rain
Rain
45 °F
Feels Like 38 °F
N
16
Wind Variable Wind from South
Gusts 23 mph

Today
High -- | Low -- °F
--% Chance of Precip.
Yesterday
High -- | Low -- °F
Precip. -- in
Pressure 29.74 in
Visibility 10.0 miles
Clouds Mostly Cloudy 11000 ft
Windchill 38 °F
Dew Point 32 °F
Humidity 60%
Rainfall 0.00 in
Snow Depth Not available.
7:25 AM 5:12 PM
Waning Crescent, 0% visible
METAR KTDZ 180353Z AUTO 17014G20KT 10SM BKN110 07/00 A2973 RMK AO2 SLP069 T00720000
Pressure 29.74 in
Visibility 10.0 miles
Clouds Mostly Cloudy 11000 ft
Windchill 38 °F
Dew Point 32 °F
Humidity 60%
Rainfall 0.00 in
Snow Depth Not available.
7:25 AM 5:12 PM
Waning Crescent, 0% visible
METAR KTDZ 180353Z AUTO 17014G20KT 10SM BKN110 07/00 A2973 RMK AO2 SLP069 T00720000

Get Your Daily Forecast Email!

Thanks for signing up!

Be on the lookout for a verification email in your inbox.

You'll start receiving severe weather alerts in your inbox..

×

10-Day Weather Forecast

Almanac

Astronomy

Nov. 17, 2017 Rise Set
Actual Time
Civil Twilight
Nautical Twilight
Astronomical Twilight
Moon
Length of Visible Light
Length of Day
Tomorrow will be .
, % of the Moon is Illuminated

Today's Extremes

State Highs State Lows

Community

WunderPhotos

Category 6

Welcome to Category 6. This is the collective home for Weather Underground's featured writeups by Dr. Jeff Masters (right), Bob Henson (left), Chris Burt, and other regular contributors.

Nearby

Air Quality

  Air Quality AQ Index Pollutant
Not available.

Snow Depth

Station Depth Elevation

Earthquake Activity

City Distance Mag. Time & Date
Minimum magnitude displayed is 2.5.

Coastal Water Temperatures

Place Temperature

Stations

Nearby Weather Stations

Station Location Temp. Windchill Dew Point Humidity Wind Precip. Elev Updated Type
                   

Watches & Warnings

Wind Advisory
Issued: 7:02 PM EST Nov. 17, 2017 – National Weather Service

... Wind Advisory remains in effect from 4 PM Saturday to 7 am EST
Sunday...

* timing... winds will begin to increase tomorrow afternoon but
the strongest winds are expected Saturday night.

* Winds... southwest winds will increase to 20 to 30 mph and gust
to 40 mph Saturday afternoon before becoming northwest
Saturday evening. Gusts to 50 mph are likely Saturday night.

* Impacts... downed branches and power lines. Objects that are
not secured such as trash cans or lawn furniture may be blown
away.

Precautionary/preparedness actions...

A Wind Advisory is issued for sustained winds of 31 to 39 mph or
gusts between 46 and 57 mph. Winds of this magnitude can cause
minor property damage without extra precautions. Motorists should
use caution especially motorists in high profile vehicles.